Atlantic - Newfoundland: Past 24 Hour Conditions

 

St. John's Int'l Airport

12:30 AM NDT 20 April 2014
This table is a summary of hourly weather conditions for the past 24 hours.
Date / Time
(NDT)
Wind(knots) Conditions Visibility(km) Pressure(kPa) Air tempC) Relative humidity(%) Dew pointC) Wind Chill
20 April 2014
0:30 NNW 17 gust 23 Light Snow 3 100.5 -2 95 -3 -10
19 April 2014
23:30 NNW 16 gust 24 Light Snow 5 100.4 -2 95 -3 -9
22:30 N 15 gust 22 Light Snow 3 100.5 -2 97 -2 -8
21:30 N 16 gust 29 Light Freezing Drizzle 2 100.5 -1 99 -1 -8
20:30 N 16 gust 24 Light Freezing Drizzle 0.8 100.7 -1 99 -2 -8
19:30 NNE 17 gust 26 Light Freezing Drizzle 0.6 100.7 -1 99 -1 -8
18:30 NNE 15 gust 20 Light Freezing Rain 0.6 100.8 -1 99 -1 -7
17:30 NE 15 gust 20 Light Freezing Drizzle 0.4 100.9 -1 99 -1 -7
16:30 ENE 16 gust 23 Light Freezing Drizzle 0.8 101.1 -1 98 -1 -8
15:30 ENE 16 gust 21 Light Freezing Drizzle 0.4 101.3 -1 98 -1 -8
14:30 E 16 gust 22 Light Snow 8 101.5 -1 97 -2 -8
13:30 ESE 12 gust 18 Light Snow 2 101.8 -1 97 -2 -7
12:30 ESE 11 gust 18 Light Snow 13 102.0 -2 95 -2 -7
11:30 SE 14 gust 20 Cloudy 24 102.1 -2 90 -3 -8
10:30 SE 13 gust 20 Cloudy 24 102.2 -2 89 -3 -8
9:30 SSE 9 gust 16 Cloudy 24 102.4 -2 88 -3 -7
8:30 SSE 13 gust 18 Cloudy 24 102.5 -2 87 -4 -8
7:30 SSE 13 Cloudy 24 102.6 -2 87 -4 -9
6:30 SSE 13 Cloudy 24 102.7 -3 86 -5 -10
5:30 S 12 gust 18 Mostly Cloudy 24 102.7 -3 86 -5 -10
4:30 S 12 gust 17 Cloudy 24 102.8 -3 86 -5 -10
3:30 S 8 Mainly Clear 24 103.0 -4 87 -6 -9
2:30 S 10 Mainly Clear 24 103.0 -4 88 -6 -10
1:30 S 9 Partly Cloudy 24 103.2 -4 88 -6 -10
0:30 S 9 Mainly Clear 24 103.2 -4 87 -6 -10
 
Map of Atlantic - Newfoundland marine weather areas Southwestern Grand Banks - 44138 Banquereau - 44139 Tail of the Bank - 44140 Nickerson Bank - 44251 Northeast Burgeo Bank - 44255 Blanc-Sablon Airport Cap Whittle Chevery Natashquan Airport Heath Point Miscou Island Grand Étang Ingonish Beach North Mountain St.Paul Island J.A. Douglas McCurdy Sydney Airport Charlottetown Airport East Point North Cape Argentia Bonavista Burgeo Cape Race Corner Brook Daniel's Harbour Englee Ferolle Point La Scie Port aux Basques Rocky Harbour Sagona Island St. Anthony Airport St. John's Int'l Airport St. Lawrence Stephenville Airport Twillingate Winterland Wreckhouse Cartwright Airport Mary's Harbour Grates Cove Pool's Island Marticot Island Long Pond Îles de la Madeleine Airport
Legend: buoyBuoy land stationLand Station